sensor_id;sensor_type;location;lat;lon;timestamp;P1;durP1;ratioP1;P2;durP2;ratioP2
52067;SDS011;60237;52.338;21.228;2024-02-21T00:00:33;33.85;;;3.95;;
52067;SDS011;60237;52.338;21.228;2024-02-21T00:02:59;49.70;;;6.50;;
52067;SDS011;60237;52.338;21.228;2024-02-21T00:05:28;73.00;;;7.60;;
52067;SDS011;60237;52.338;21.228;2024-02-21T00:07:55;50.97;;;5.68;;
52067;SDS011;60237;52.338;21.228;2024-02-21T00:10:21;53.67;;;5.60;;
52067;SDS011;60237;52.338;21.228;2024-02-21T00:12:48;37.45;;;4.28;;
52067;SDS011;60237;52.338;21.228;2024-02-21T00:15:15;38.00;;;4.63;;
52067;SDS011;60237;52.338;21.228;2024-02-21T00:17:43;67.97;;;5.82;;
52067;SDS011;60237;52.338;21.228;2024-02-21T00:20:09;56.05;;;5.55;;
52067;SDS011;60237;52.338;21.228;2024-02-21T00:22:37;40.83;;;4.85;;
52067;SDS011;60237;52.338;21.228;2024-02-21T00:25:04;69.78;;;7.97;;
52067;SDS011;60237;52.338;21.228;2024-02-21T00:27:31;52.60;;;4.80;;
52067;SDS011;60237;52.338;21.228;2024-02-21T00:29:58;40.03;;;5.15;;
52067;SDS011;60237;52.338;21.228;2024-02-21T00:32:25;43.08;;;4.40;;
52067;SDS011;60237;52.338;21.228;2024-02-21T00:34:51;30.40;;;4.10;;
52067;SDS011;60237;52.338;21.228;2024-02-21T00:37:18;27.35;;;4.68;;
52067;SDS011;60237;52.338;21.228;2024-02-21T00:39:45;58.72;;;5.90;;
52067;SDS011;60237;52.338;21.228;2024-02-21T00:42:11;32.17;;;4.18;;
52067;SDS011;60237;52.338;21.228;2024-02-21T00:44:38;33.25;;;3.97;;
52067;SDS011;60237;52.338;21.228;2024-02-21T00:47:04;49.28;;;5.18;;
52067;SDS011;60237;52.338;21.228;2024-02-21T00:49:31;50.75;;;5.20;;
52067;SDS011;60237;52.338;21.228;2024-02-21T00:51:58;39.78;;;4.72;;
52067;SDS011;60237;52.338;21.228;2024-02-21T00:54:24;41.55;;;5.55;;
52067;SDS011;60237;52.338;21.228;2024-02-21T00:56:57;26.42;;;3.95;;
52067;SDS011;60237;52.338;21.228;2024-02-21T00:59:24;39.28;;;4.68;;
52067;SDS011;60237;52.338;21.228;2024-02-21T01:01:50;58.17;;;5.95;;
52067;SDS011;60237;52.338;21.228;2024-02-21T01:04:17;23.63;;;3.80;;
52067;SDS011;60237;52.338;21.228;2024-02-21T01:06:44;66.43;;;6.40;;
52067;SDS011;60237;52.338;21.228;2024-02-21T01:09:10;77.55;;;7.07;;
52067;SDS011;60237;52.338;21.228;2024-02-21T01:11:37;56.45;;;5.80;;
52067;SDS011;60237;52.338;21.228;2024-02-21T01:14:04;42.72;;;4.95;;
52067;SDS011;60237;52.338;21.228;2024-02-21T01:16:30;34.75;;;4.93;;
52067;SDS011;60237;52.338;21.228;2024-02-21T01:18:57;36.47;;;5.72;;
52067;SDS011;60237;52.338;21.228;2024-02-21T01:21:24;70.40;;;6.10;;
52067;SDS011;60237;52.338;21.228;2024-02-21T01:23:50;37.50;;;4.57;;
52067;SDS011;60237;52.338;21.228;2024-02-21T01:26:17;38.13;;;5.20;;
52067;SDS011;60237;52.338;21.228;2024-02-21T01:28:44;41.90;;;5.85;;
52067;SDS011;60237;52.338;21.228;2024-02-21T01:31:11;58.58;;;5.95;;
52067;SDS011;60237;52.338;21.228;2024-02-21T01:33:39;44.47;;;5.35;;
52067;SDS011;60237;52.338;21.228;2024-02-21T01:36:06;41.83;;;5.35;;
52067;SDS011;60237;52.338;21.228;2024-02-21T01:38:33;36.30;;;4.68;;
52067;SDS011;60237;52.338;21.228;2024-02-21T01:41:00;43.72;;;4.38;;
52067;SDS011;60237;52.338;21.228;2024-02-21T01:43:26;47.45;;;5.82;;
52067;SDS011;60237;52.338;21.228;2024-02-21T01:45:53;36.80;;;4.93;;
52067;SDS011;60237;52.338;21.228;2024-02-21T01:48:24;40.97;;;5.22;;
52067;SDS011;60237;52.338;21.228;2024-02-21T01:50:52;52.22;;;5.90;;
52067;SDS011;60237;52.338;21.228;2024-02-21T01:53:23;44.78;;;5.47;;
52067;SDS011;60237;52.338;21.228;2024-02-21T01:55:50;42.63;;;5.53;;
52067;SDS011;60237;52.338;21.228;2024-02-21T01:58:17;29.33;;;4.55;;
52067;SDS011;60237;52.338;21.228;2024-02-21T02:00:45;108.25;;;8.57;;
52067;SDS011;60237;52.338;21.228;2024-02-21T02:03:12;75.57;;;7.32;;
52067;SDS011;60237;52.338;21.228;2024-02-21T02:05:46;65.20;;;6.70;;
52067;SDS011;60237;52.338;21.228;2024-02-21T02:08:16;58.85;;;6.75;;
52067;SDS011;60237;52.338;21.228;2024-02-21T02:10:43;48.55;;;6.05;;
52067;SDS011;60237;52.338;21.228;2024-02-21T02:13:10;54.80;;;7.05;;
52067;SDS011;60237;52.338;21.228;2024-02-21T02:15:43;88.47;;;8.45;;
52067;SDS011;60237;52.338;21.228;2024-02-21T02:18:10;55.45;;;6.20;;
52067;SDS011;60237;52.338;21.228;2024-02-21T02:20:37;50.35;;;7.50;;
52067;SDS011;60237;52.338;21.228;2024-02-21T02:23:09;74.90;;;7.93;;
52067;SDS011;60237;52.338;21.228;2024-02-21T02:25:36;68.28;;;7.68;;
52067;SDS011;60237;52.338;21.228;2024-02-21T02:28:03;84.00;;;8.63;;
52067;SDS011;60237;52.338;21.228;2024-02-21T02:30:33;70.22;;;8.18;;
52067;SDS011;60237;52.338;21.228;2024-02-21T02:33:01;71.10;;;8.10;;
52067;SDS011;60237;52.338;21.228;2024-02-21T02:35:27;60.83;;;7.63;;
52067;SDS011;60237;52.338;21.228;2024-02-21T02:37:54;52.15;;;7.38;;
52067;SDS011;60237;52.338;21.228;2024-02-21T02:40:21;37.20;;;6.97;;
52067;SDS011;60237;52.338;21.228;2024-02-21T02:42:48;63.58;;;8.57;;
52067;SDS011;60237;52.338;21.228;2024-02-21T02:45:15;37.78;;;7.07;;
52067;SDS011;60237;52.338;21.228;2024-02-21T02:47:43;60.03;;;7.90;;
52067;SDS011;60237;52.338;21.228;2024-02-21T02:50:10;77.18;;;9.00;;
52067;SDS011;60237;52.338;21.228;2024-02-21T02:52:37;45.00;;;7.47;;
52067;SDS011;60237;52.338;21.228;2024-02-21T02:55:04;56.10;;;8.50;;
52067;SDS011;60237;52.338;21.228;2024-02-21T02:57:30;57.35;;;8.35;;
52067;SDS011;60237;52.338;21.228;2024-02-21T02:59:57;71.68;;;8.52;;
52067;SDS011;60237;52.338;21.228;2024-02-21T03:02:24;50.40;;;7.97;;
52067;SDS011;60237;52.338;21.228;2024-02-21T03:04:50;43.22;;;6.97;;
52067;SDS011;60237;52.338;21.228;2024-02-21T03:07:17;42.83;;;7.68;;
52067;SDS011;60237;52.338;21.228;2024-02-21T03:09:43;80.68;;;8.70;;
52067;SDS011;60237;52.338;21.228;2024-02-21T03:12:10;46.97;;;8.13;;
52067;SDS011;60237;52.338;21.228;2024-02-21T03:14:37;43.70;;;8.80;;
52067;SDS011;60237;52.338;21.228;2024-02-21T03:17:03;85.22;;;10.30;;
52067;SDS011;60237;52.338;21.228;2024-02-21T03:19:31;84.18;;;9.75;;
52067;SDS011;60237;52.338;21.228;2024-02-21T03:21:58;37.20;;;7.32;;
52067;SDS011;60237;52.338;21.228;2024-02-21T03:24:24;44.65;;;7.63;;
52067;SDS011;60237;52.338;21.228;2024-02-21T03:26:51;44.08;;;8.30;;
52067;SDS011;60237;52.338;21.228;2024-02-21T03:29:18;72.68;;;9.05;;
52067;SDS011;60237;52.338;21.228;2024-02-21T03:31:44;71.88;;;9.75;;
52067;SDS011;60237;52.338;21.228;2024-02-21T03:34:11;55.30;;;8.82;;
52067;SDS011;60237;52.338;21.228;2024-02-21T03:36:38;61.78;;;9.75;;
52067;SDS011;60237;52.338;21.228;2024-02-21T03:39:05;74.45;;;9.25;;
52067;SDS011;60237;52.338;21.228;2024-02-21T03:41:31;78.47;;;10.57;;
52067;SDS011;60237;52.338;21.228;2024-02-21T03:43:58;58.28;;;9.13;;
52067;SDS011;60237;52.338;21.228;2024-02-21T03:46:24;45.78;;;8.48;;
52067;SDS011;60237;52.338;21.228;2024-02-21T03:48:51;42.65;;;8.15;;
52067;SDS011;60237;52.338;21.228;2024-02-21T03:51:18;60.67;;;9.60;;
52067;SDS011;60237;52.338;21.228;2024-02-21T03:53:44;57.60;;;8.98;;
52067;SDS011;60237;52.338;21.228;2024-02-21T03:56:11;45.08;;;8.77;;
52067;SDS011;60237;52.338;21.228;2024-02-21T03:58:38;55.55;;;8.88;;
52067;SDS011;60237;52.338;21.228;2024-02-21T04:01:04;81.25;;;10.15;;
52067;SDS011;60237;52.338;21.228;2024-02-21T04:03:32;51.40;;;9.00;;
52067;SDS011;60237;52.338;21.228;2024-02-21T04:05:59;86.15;;;9.98;;
52067;SDS011;60237;52.338;21.228;2024-02-21T04:08:26;54.45;;;8.00;;
52067;SDS011;60237;52.338;21.228;2024-02-21T04:10:53;48.00;;;8.52;;
52067;SDS011;60237;52.338;21.228;2024-02-21T04:13:20;60.20;;;8.98;;
52067;SDS011;60237;52.338;21.228;2024-02-21T04:15:46;45.97;;;8.07;;
52067;SDS011;60237;52.338;21.228;2024-02-21T04:18:13;47.63;;;9.20;;
52067;SDS011;60237;52.338;21.228;2024-02-21T04:20:41;72.30;;;9.82;;
52067;SDS011;60237;52.338;21.228;2024-02-21T04:23:07;68.72;;;10.48;;
52067;SDS011;60237;52.338;21.228;2024-02-21T04:25:34;61.80;;;10.20;;
52067;SDS011;60237;52.338;21.228;2024-02-21T04:28:01;64.18;;;9.77;;
52067;SDS011;60237;52.338;21.228;2024-02-21T04:30:27;59.67;;;11.10;;
52067;SDS011;60237;52.338;21.228;2024-02-21T04:32:54;75.05;;;11.82;;
52067;SDS011;60237;52.338;21.228;2024-02-21T04:35:20;63.40;;;12.65;;
52067;SDS011;60237;52.338;21.228;2024-02-21T04:37:47;58.53;;;11.82;;
52067;SDS011;60237;52.338;21.228;2024-02-21T04:40:14;64.80;;;11.70;;
52067;SDS011;60237;52.338;21.228;2024-02-21T04:42:41;94.05;;;13.48;;
52067;SDS011;60237;52.338;21.228;2024-02-21T04:45:07;51.50;;;10.30;;
52067;SDS011;60237;52.338;21.228;2024-02-21T04:47:34;71.07;;;12.77;;
52067;SDS011;60237;52.338;21.228;2024-02-21T04:50:01;53.10;;;9.75;;
52067;SDS011;60237;52.338;21.228;2024-02-21T04:52:27;55.40;;;10.50;;
52067;SDS011;60237;52.338;21.228;2024-02-21T04:54:54;53.88;;;9.48;;
52067;SDS011;60237;52.338;21.228;2024-02-21T04:57:20;43.83;;;9.18;;
52067;SDS011;60237;52.338;21.228;2024-02-21T04:59:47;46.38;;;9.18;;
52067;SDS011;60237;52.338;21.228;2024-02-21T05:02:14;79.85;;;10.57;;
52067;SDS011;60237;52.338;21.228;2024-02-21T05:04:42;55.47;;;9.48;;
52067;SDS011;60237;52.338;21.228;2024-02-21T05:07:09;68.43;;;9.43;;
52067;SDS011;60237;52.338;21.228;2024-02-21T05:09:37;78.03;;;9.40;;
52067;SDS011;60237;52.338;21.228;2024-02-21T05:12:04;71.07;;;10.07;;
52067;SDS011;60237;52.338;21.228;2024-02-21T05:14:30;31.77;;;7.70;;
52067;SDS011;60237;52.338;21.228;2024-02-21T05:16:57;42.08;;;8.05;;
52067;SDS011;60237;52.338;21.228;2024-02-21T05:19:24;52.35;;;9.30;;
52067;SDS011;60237;52.338;21.228;2024-02-21T05:21:50;36.25;;;8.02;;
52067;SDS011;60237;52.338;21.228;2024-02-21T05:24:17;61.00;;;10.68;;
52067;SDS011;60237;52.338;21.228;2024-02-21T05:26:43;47.70;;;8.95;;
52067;SDS011;60237;52.338;21.228;2024-02-21T05:29:10;59.20;;;11.23;;
52067;SDS011;60237;52.338;21.228;2024-02-21T05:34:18;67.25;;;15.00;;
52067;SDS011;60237;52.338;21.228;2024-02-21T05:36:46;57.95;;;13.48;;
52067;SDS011;60237;52.338;21.228;2024-02-21T05:39:13;58.70;;;13.88;;
52067;SDS011;60237;52.338;21.228;2024-02-21T05:41:39;90.20;;;16.08;;
52067;SDS011;60237;52.338;21.228;2024-02-21T05:44:06;113.35;;;17.42;;
52067;SDS011;60237;52.338;21.228;2024-02-21T05:46:32;50.25;;;13.32;;
52067;SDS011;60237;52.338;21.228;2024-02-21T05:48:59;63.35;;;15.18;;
52067;SDS011;60237;52.338;21.228;2024-02-21T05:51:26;71.15;;;13.93;;
52067;SDS011;60237;52.338;21.228;2024-02-21T05:53:52;55.72;;;12.45;;
52067;SDS011;60237;52.338;21.228;2024-02-21T05:56:19;86.85;;;15.65;;
52067;SDS011;60237;52.338;21.228;2024-02-21T05:58:45;60.75;;;14.07;;
52067;SDS011;60237;52.338;21.228;2024-02-21T06:01:12;66.68;;;14.90;;
52067;SDS011;60237;52.338;21.228;2024-02-21T06:03:39;91.72;;;15.68;;
52067;SDS011;60237;52.338;21.228;2024-02-21T06:06:05;73.72;;;14.60;;
52067;SDS011;60237;52.338;21.228;2024-02-21T06:08:32;49.05;;;13.95;;
52067;SDS011;60237;52.338;21.228;2024-02-21T06:10:58;92.05;;;16.35;;
52067;SDS011;60237;52.338;21.228;2024-02-21T06:13:25;79.97;;;17.10;;
52067;SDS011;60237;52.338;21.228;2024-02-21T06:15:52;70.63;;;14.98;;
52067;SDS011;60237;52.338;21.228;2024-02-21T06:18:19;77.93;;;16.38;;
52067;SDS011;60237;52.338;21.228;2024-02-21T06:20:46;51.88;;;14.23;;
52067;SDS011;60237;52.338;21.228;2024-02-21T06:23:13;127.82;;;19.75;;
52067;SDS011;60237;52.338;21.228;2024-02-21T06:25:39;92.57;;;17.85;;
52067;SDS011;60237;52.338;21.228;2024-02-21T06:28:06;68.68;;;16.73;;
52067;SDS011;60237;52.338;21.228;2024-02-21T06:30:32;66.68;;;15.82;;
52067;SDS011;60237;52.338;21.228;2024-02-21T06:32:59;60.42;;;16.67;;
52067;SDS011;60237;52.338;21.228;2024-02-21T06:35:26;70.05;;;15.32;;
52067;SDS011;60237;52.338;21.228;2024-02-21T06:37:54;70.50;;;16.00;;
52067;SDS011;60237;52.338;21.228;2024-02-21T06:40:21;59.15;;;15.52;;
52067;SDS011;60237;52.338;21.228;2024-02-21T06:42:49;54.53;;;14.60;;
52067;SDS011;60237;52.338;21.228;2024-02-21T06:45:15;55.65;;;14.55;;
52067;SDS011;60237;52.338;21.228;2024-02-21T06:47:42;86.15;;;17.48;;
52067;SDS011;60237;52.338;21.228;2024-02-21T06:50:09;78.75;;;16.67;;
52067;SDS011;60237;52.338;21.228;2024-02-21T06:52:36;101.35;;;16.73;;
52067;SDS011;60237;52.338;21.228;2024-02-21T06:55:03;73.95;;;14.00;;
52067;SDS011;60237;52.338;21.228;2024-02-21T06:57:29;106.25;;;16.85;;
52067;SDS011;60237;52.338;21.228;2024-02-21T06:59:56;94.20;;;17.27;;
52067;SDS011;60237;52.338;21.228;2024-02-21T07:02:24;141.40;;;28.77;;
52067;SDS011;60237;52.338;21.228;2024-02-21T07:04:51;87.18;;;17.38;;
52067;SDS011;60237;52.338;21.228;2024-02-21T07:07:18;67.10;;;15.48;;
52067;SDS011;60237;52.338;21.228;2024-02-21T07:09:44;63.50;;;15.27;;
52067;SDS011;60237;52.338;21.228;2024-02-21T07:12:12;65.80;;;14.35;;
52067;SDS011;60237;52.338;21.228;2024-02-21T07:14:39;45.00;;;12.55;;
52067;SDS011;60237;52.338;21.228;2024-02-21T07:17:06;68.90;;;13.50;;
52067;SDS011;60237;52.338;21.228;2024-02-21T07:19:32;125.82;;;18.35;;
52067;SDS011;60237;52.338;21.228;2024-02-21T07:21:59;49.97;;;13.48;;
52067;SDS011;60237;52.338;21.228;2024-02-21T07:24:26;53.40;;;13.43;;
52067;SDS011;60237;52.338;21.228;2024-02-21T07:26:52;56.30;;;12.75;;
52067;SDS011;60237;52.338;21.228;2024-02-21T07:29:19;71.72;;;13.90;;
52067;SDS011;60237;52.338;21.228;2024-02-21T07:31:46;55.90;;;14.07;;
52067;SDS011;60237;52.338;21.228;2024-02-21T07:34:15;84.47;;;15.00;;
52067;SDS011;60237;52.338;21.228;2024-02-21T07:36:42;60.25;;;13.57;;
52067;SDS011;60237;52.338;21.228;2024-02-21T07:39:09;77.10;;;14.25;;
52067;SDS011;60237;52.338;21.228;2024-02-21T07:41:35;108.95;;;15.05;;
52067;SDS011;60237;52.338;21.228;2024-02-21T07:44:02;51.42;;;12.93;;
52067;SDS011;60237;52.338;21.228;2024-02-21T07:46:30;48.00;;;12.15;;
52067;SDS011;60237;52.338;21.228;2024-02-21T07:48:56;77.18;;;14.20;;
52067;SDS011;60237;52.338;21.228;2024-02-21T07:51:27;50.97;;;12.73;;
52067;SDS011;60237;52.338;21.228;2024-02-21T07:53:53;64.60;;;12.00;;
52067;SDS011;60237;52.338;21.228;2024-02-21T07:56:20;62.20;;;11.43;;
52067;SDS011;60237;52.338;21.228;2024-02-21T07:58:46;82.20;;;13.10;;
52067;SDS011;60237;52.338;21.228;2024-02-21T08:01:19;73.43;;;12.27;;
52067;SDS011;60237;52.338;21.228;2024-02-21T08:03:47;73.63;;;12.70;;
52067;SDS011;60237;52.338;21.228;2024-02-21T08:06:14;95.53;;;14.48;;
52067;SDS011;60237;52.338;21.228;2024-02-21T08:08:40;67.57;;;12.60;;
52067;SDS011;60237;52.338;21.228;2024-02-21T08:11:07;73.10;;;12.75;;
52067;SDS011;60237;52.338;21.228;2024-02-21T08:13:34;73.85;;;12.45;;
52067;SDS011;60237;52.338;21.228;2024-02-21T08:16:00;69.45;;;13.55;;
52067;SDS011;60237;52.338;21.228;2024-02-21T08:18:27;102.32;;;14.65;;
52067;SDS011;60237;52.338;21.228;2024-02-21T08:20:54;77.47;;;12.73;;
52067;SDS011;60237;52.338;21.228;2024-02-21T08:23:23;92.93;;;14.80;;
52067;SDS011;60237;52.338;21.228;2024-02-21T08:25:50;55.85;;;12.77;;
52067;SDS011;60237;52.338;21.228;2024-02-21T08:28:17;116.30;;;15.10;;
52067;SDS011;60237;52.338;21.228;2024-02-21T08:30:43;66.22;;;11.88;;
52067;SDS011;60237;52.338;21.228;2024-02-21T08:33:16;87.05;;;13.15;;
52067;SDS011;60237;52.338;21.228;2024-02-21T08:35:43;60.10;;;11.93;;
52067;SDS011;60237;52.338;21.228;2024-02-21T08:38:10;69.93;;;12.07;;
52067;SDS011;60237;52.338;21.228;2024-02-21T08:40:36;64.13;;;12.20;;
52067;SDS011;60237;52.338;21.228;2024-02-21T08:43:03;106.25;;;13.85;;
52067;SDS011;60237;52.338;21.228;2024-02-21T08:45:30;66.88;;;11.25;;
52067;SDS011;60237;52.338;21.228;2024-02-21T08:47:56;86.68;;;12.13;;
52067;SDS011;60237;52.338;21.228;2024-02-21T08:50:23;52.83;;;11.70;;
52067;SDS011;60237;52.338;21.228;2024-02-21T08:52:55;89.65;;;13.48;;
52067;SDS011;60237;52.338;21.228;2024-02-21T08:55:22;79.13;;;12.20;;
52067;SDS011;60237;52.338;21.228;2024-02-21T08:57:48;73.47;;;12.82;;
52067;SDS011;60237;52.338;21.228;2024-02-21T09:00:15;65.47;;;11.15;;
52067;SDS011;60237;52.338;21.228;2024-02-21T09:02:42;72.15;;;12.55;;
52067;SDS011;60237;52.338;21.228;2024-02-21T09:05:10;77.53;;;12.38;;
52067;SDS011;60237;52.338;21.228;2024-02-21T09:07:37;72.43;;;12.38;;
52067;SDS011;60237;52.338;21.228;2024-02-21T09:10:03;56.72;;;11.40;;
52067;SDS011;60237;52.338;21.228;2024-02-21T09:12:30;41.30;;;9.93;;
52067;SDS011;60237;52.338;21.228;2024-02-21T09:14:57;69.20;;;13.05;;
52067;SDS011;60237;52.338;21.228;2024-02-21T09:17:23;67.75;;;12.82;;
52067;SDS011;60237;52.338;21.228;2024-02-21T09:19:51;37.05;;;10.70;;
52067;SDS011;60237;52.338;21.228;2024-02-21T09:22:18;46.78;;;12.00;;
52067;SDS011;60237;52.338;21.228;2024-02-21T09:24:45;74.32;;;13.77;;
52067;SDS011;60237;52.338;21.228;2024-02-21T09:27:12;65.28;;;12.70;;
52067;SDS011;60237;52.338;21.228;2024-02-21T09:29:38;90.82;;;14.45;;
52067;SDS011;60237;52.338;21.228;2024-02-21T09:32:06;77.28;;;13.13;;
52067;SDS011;60237;52.338;21.228;2024-02-21T09:34:33;71.45;;;12.88;;
52067;SDS011;60237;52.338;21.228;2024-02-21T09:37:00;79.82;;;13.18;;
52067;SDS011;60237;52.338;21.228;2024-02-21T09:39:26;89.90;;;14.80;;
52067;SDS011;60237;52.338;21.228;2024-02-21T09:41:53;64.78;;;12.88;;
52067;SDS011;60237;52.338;21.228;2024-02-21T09:44:22;69.60;;;14.82;;
52067;SDS011;60237;52.338;21.228;2024-02-21T09:47:12;173.88;;;55.45;;
52067;SDS011;60237;52.338;21.228;2024-02-21T09:49:38;114.65;;;21.08;;
52067;SDS011;60237;52.338;21.228;2024-02-21T09:52:07;86.88;;;15.00;;
52067;SDS011;60237;52.338;21.228;2024-02-21T09:54:34;72.18;;;12.00;;
52067;SDS011;60237;52.338;21.228;2024-02-21T09:57:01;63.20;;;12.73;;
52067;SDS011;60237;52.338;21.228;2024-02-21T09:59:28;98.28;;;14.60;;
52067;SDS011;60237;52.338;21.228;2024-02-21T10:01:55;55.97;;;11.30;;
52067;SDS011;60237;52.338;21.228;2024-02-21T10:04:23;88.40;;;14.27;;
52067;SDS011;60237;52.338;21.228;2024-02-21T10:06:50;80.60;;;12.80;;
52067;SDS011;60237;52.338;21.228;2024-02-21T10:09:23;62.15;;;12.60;;
52067;SDS011;60237;52.338;21.228;2024-02-21T10:11:50;67.70;;;12.32;;
52067;SDS011;60237;52.338;21.228;2024-02-21T10:14:17;95.25;;;13.68;;
52067;SDS011;60237;52.338;21.228;2024-02-21T10:16:48;50.10;;;11.93;;
52067;SDS011;60237;52.338;21.228;2024-02-21T10:19:18;91.30;;;15.13;;
52067;SDS011;60237;52.338;21.228;2024-02-21T10:22:05;79.85;;;13.88;;
52067;SDS011;60237;52.338;21.228;2024-02-21T10:24:34;76.70;;;11.95;;
52067;SDS011;60237;52.338;21.228;2024-02-21T10:27:04;90.38;;;14.80;;
52067;SDS011;60237;52.338;21.228;2024-02-21T10:29:31;70.38;;;12.88;;
52067;SDS011;60237;52.338;21.228;2024-02-21T10:32:04;56.10;;;12.00;;
52067;SDS011;60237;52.338;21.228;2024-02-21T10:34:32;91.57;;;14.18;;
52067;SDS011;60237;52.338;21.228;2024-02-21T10:36:59;55.60;;;11.30;;
52067;SDS011;60237;52.338;21.228;2024-02-21T10:39:26;65.00;;;11.80;;
52067;SDS011;60237;52.338;21.228;2024-02-21T10:41:55;84.30;;;18.95;;
52067;SDS011;60237;52.338;21.228;2024-02-21T10:44:23;150.75;;;37.05;;
52067;SDS011;60237;52.338;21.228;2024-02-21T10:46:50;83.15;;;23.33;;
52067;SDS011;60237;52.338;21.228;2024-02-21T10:49:18;75.07;;;16.77;;
52067;SDS011;60237;52.338;21.228;2024-02-21T10:51:48;73.50;;;12.80;;
52067;SDS011;60237;52.338;21.228;2024-02-21T10:56:45;61.70;;;10.77;;
52067;SDS011;60237;52.338;21.228;2024-02-21T10:59:14;101.22;;;11.63;;
52067;SDS011;60237;52.338;21.228;2024-02-21T11:01:41;62.95;;;10.52;;
52067;SDS011;60237;52.338;21.228;2024-02-21T11:04:08;68.95;;;9.80;;
52067;SDS011;60237;52.338;21.228;2024-02-21T11:06:35;70.63;;;11.57;;
52067;SDS011;60237;52.338;21.228;2024-02-21T11:09:06;56.45;;;9.75;;
52067;SDS011;60237;52.338;21.228;2024-02-21T11:11:34;82.50;;;11.02;;
52067;SDS011;60237;52.338;21.228;2024-02-21T11:14:07;45.42;;;9.80;;
52067;SDS011;60237;52.338;21.228;2024-02-21T11:19:07;51.80;;;8.65;;
52067;SDS011;60237;52.338;21.228;2024-02-21T11:21:37;98.00;;;12.23;;
52067;SDS011;60237;52.338;21.228;2024-02-21T11:24:03;59.20;;;8.38;;
52067;SDS011;60237;52.338;21.228;2024-02-21T11:26:30;51.55;;;8.98;;
52067;SDS011;60237;52.338;21.228;2024-02-21T11:29:00;44.00;;;8.63;;
52067;SDS011;60237;52.338;21.228;2024-02-21T11:31:39;56.88;;;10.10;;
52067;SDS011;60237;52.338;21.228;2024-02-21T11:34:09;61.20;;;10.98;;
52067;SDS011;60237;52.338;21.228;2024-02-21T11:36:46;37.67;;;8.35;;
52067;SDS011;60237;52.338;21.228;2024-02-21T11:39:12;70.40;;;10.27;;
52067;SDS011;60237;52.338;21.228;2024-02-21T11:41:39;67.22;;;9.40;;
52067;SDS011;60237;52.338;21.228;2024-02-21T11:44:08;59.42;;;9.65;;
52067;SDS011;60237;52.338;21.228;2024-02-21T11:46:34;62.03;;;11.43;;
52067;SDS011;60237;52.338;21.228;2024-02-21T11:49:02;54.03;;;10.60;;
52067;SDS011;60237;52.338;21.228;2024-02-21T11:51:29;85.00;;;12.23;;
52067;SDS011;60237;52.338;21.228;2024-02-21T11:53:56;77.32;;;12.00;;
52067;SDS011;60237;52.338;21.228;2024-02-21T11:56:27;66.85;;;11.60;;
52067;SDS011;60237;52.338;21.228;2024-02-21T11:58:54;61.90;;;12.18;;
52067;SDS011;60237;52.338;21.228;2024-02-21T12:01:21;124.60;;;15.15;;
52067;SDS011;60237;52.338;21.228;2024-02-21T12:03:47;71.38;;;12.85;;
52067;SDS011;60237;52.338;21.228;2024-02-21T12:06:16;65.72;;;11.30;;
52067;SDS011;60237;52.338;21.228;2024-02-21T12:08:48;101.07;;;14.40;;
52067;SDS011;60237;52.338;21.228;2024-02-21T12:11:21;66.00;;;11.48;;
52067;SDS011;60237;52.338;21.228;2024-02-21T12:13:58;77.78;;;12.15;;
52067;SDS011;60237;52.338;21.228;2024-02-21T12:16:27;89.82;;;15.90;;
52067;SDS011;60237;52.338;21.228;2024-02-21T12:18:53;53.88;;;11.27;;
52067;SDS011;60237;52.338;21.228;2024-02-21T12:21:23;78.40;;;11.77;;
52067;SDS011;60237;52.338;21.228;2024-02-21T12:23:50;70.38;;;13.80;;
52067;SDS011;60237;52.338;21.228;2024-02-21T12:26:16;85.50;;;12.40;;
52067;SDS011;60237;52.338;21.228;2024-02-21T12:28:43;57.03;;;12.20;;
52067;SDS011;60237;52.338;21.228;2024-02-21T12:31:10;42.75;;;10.35;;
52067;SDS011;60237;52.338;21.228;2024-02-21T12:33:36;86.63;;;15.10;;
52067;SDS011;60237;52.338;21.228;2024-02-21T12:36:03;109.13;;;16.13;;
52067;SDS011;60237;52.338;21.228;2024-02-21T12:38:30;53.53;;;13.27;;
52067;SDS011;60237;52.338;21.228;2024-02-21T12:40:57;51.42;;;12.20;;
52067;SDS011;60237;52.338;21.228;2024-02-21T12:43:23;128.18;;;16.63;;
52067;SDS011;60237;52.338;21.228;2024-02-21T12:45:50;74.45;;;13.10;;
52067;SDS011;60237;52.338;21.228;2024-02-21T12:48:17;77.55;;;14.73;;
52067;SDS011;60237;52.338;21.228;2024-02-21T12:50:50;90.95;;;14.80;;
52067;SDS011;60237;52.338;21.228;2024-02-21T12:53:19;96.20;;;15.60;;
52067;SDS011;60237;52.338;21.228;2024-02-21T12:55:58;80.65;;;15.73;;
52067;SDS011;60237;52.338;21.228;2024-02-21T12:58:24;75.72;;;13.68;;
52067;SDS011;60237;52.338;21.228;2024-02-21T13:00:51;50.80;;;12.95;;
52067;SDS011;60237;52.338;21.228;2024-02-21T13:03:17;106.93;;;17.10;;
52067;SDS011;60237;52.338;21.228;2024-02-21T13:05:44;77.15;;;13.68;;
52067;SDS011;60237;52.338;21.228;2024-02-21T13:08:11;68.85;;;14.80;;
52067;SDS011;60237;52.338;21.228;2024-02-21T13:10:38;72.90;;;14.02;;
52067;SDS011;60237;52.338;21.228;2024-02-21T13:13:05;63.22;;;12.80;;
52067;SDS011;60237;52.338;21.228;2024-02-21T13:15:31;87.03;;;15.20;;
52067;SDS011;60237;52.338;21.228;2024-02-21T13:17:58;50.28;;;12.90;;
52067;SDS011;60237;52.338;21.228;2024-02-21T13:20:25;77.78;;;14.25;;
52067;SDS011;60237;52.338;21.228;2024-02-21T13:22:52;94.78;;;14.90;;
52067;SDS011;60237;52.338;21.228;2024-02-21T13:25:19;74.35;;;13.20;;
52067;SDS011;60237;52.338;21.228;2024-02-21T13:27:47;92.90;;;13.98;;
52067;SDS011;60237;52.338;21.228;2024-02-21T13:30:15;76.43;;;13.27;;
52067;SDS011;60237;52.338;21.228;2024-02-21T13:32:44;96.72;;;16.55;;
52067;SDS011;60237;52.338;21.228;2024-02-21T13:35:13;43.05;;;12.07;;
52067;SDS011;60237;52.338;21.228;2024-02-21T13:37:42;71.75;;;13.07;;
52067;SDS011;60237;52.338;21.228;2024-02-21T13:40:09;74.05;;;14.15;;
52067;SDS011;60237;52.338;21.228;2024-02-21T13:42:36;81.07;;;13.18;;
52067;SDS011;60237;52.338;21.228;2024-02-21T13:45:03;51.47;;;11.77;;
52067;SDS011;60237;52.338;21.228;2024-02-21T13:47:32;114.03;;;14.90;;
52067;SDS011;60237;52.338;21.228;2024-02-21T13:49:58;56.45;;;11.85;;
52067;SDS011;60237;52.338;21.228;2024-02-21T13:52:25;66.75;;;12.05;;
52067;SDS011;60237;52.338;21.228;2024-02-21T13:54:55;72.80;;;12.88;;
52067;SDS011;60237;52.338;21.228;2024-02-21T13:57:21;50.83;;;11.63;;
52067;SDS011;60237;52.338;21.228;2024-02-21T13:59:48;67.05;;;13.40;;
52067;SDS011;60237;52.338;21.228;2024-02-21T14:02:14;69.45;;;14.23;;
52067;SDS011;60237;52.338;21.228;2024-02-21T14:04:41;42.00;;;12.00;;
52067;SDS011;60237;52.338;21.228;2024-02-21T14:07:08;62.72;;;12.88;;
52067;SDS011;60237;52.338;21.228;2024-02-21T14:09:35;100.32;;;14.93;;
52067;SDS011;60237;52.338;21.228;2024-02-21T14:12:02;71.10;;;13.52;;
52067;SDS011;60237;52.338;21.228;2024-02-21T14:14:29;65.93;;;12.75;;
52067;SDS011;60237;52.338;21.228;2024-02-21T14:16:55;94.75;;;14.57;;
52067;SDS011;60237;52.338;21.228;2024-02-21T14:19:22;82.05;;;14.48;;
52067;SDS011;60237;52.338;21.228;2024-02-21T14:21:49;55.92;;;12.50;;